KEND

Vance Air Force Base

Airport
ICAO code
KEND
Summary
ICAO Region
NAM
ICAO Territory
Location

Enid, Oklahoma,

Elevation
1307 ft
Coordinates
36° 20' 23" N , 97° 54' 58" W
KCC
Airport LOS
Parallel Runway Operation
Metar
KEND 142155Z 16010KT 10SM HZ CLR 33/10 A2974 RMK AO2A SLP059 T03340100 $

Description

Vance Air Force Base is a United States Air Force installation located 6 km south of the central business district of Enid, Oklahoma.

Climatology

Humid “subtropical” climate (Köppen climate classification Cfa) - characterized by hot, humid summers and cool winters. Significant amounts of precipitation occur in all seasons in most areas. Winter rainfall (and sometimes snowfall) is associated with large storms that the westerlies steer from west to east. Most summer rainfall occurs during thunderstorms and occasional tropical storms (hurricanes).

Airport map

Aerial View

SKYbrary Partners:

Safety knowledge contributed by: